createdAt,value
2023-04-24T00:05:14.668Z,32.3
2023-04-24T00:11:06.063Z,30.2
2023-04-24T00:16:58.148Z,29.5
2023-04-24T00:22:49.129Z,28.9
2023-04-24T00:28:39.927Z,28.3
2023-04-24T00:34:31.733Z,29.6
2023-04-24T00:40:23.104Z,33.9
2023-04-24T00:46:13.910Z,31.1
2023-04-24T00:52:04.857Z,29.9
2023-04-24T00:57:40.819Z,29.3
2023-04-24T01:03:33.513Z,28.8
2023-04-24T01:09:25.229Z,28.1
2023-04-24T01:15:17.256Z,30.9
2023-04-24T01:21:09.278Z,33.2
2023-04-24T01:27:00.850Z,30.6
2023-04-24T01:32:52.711Z,29.6
2023-04-24T01:38:28.936Z,29.1
2023-04-24T01:44:20.488Z,28.5
2023-04-24T01:50:12.512Z,27.9
2023-04-24T01:56:03.858Z,31.9
2023-04-24T02:01:56.170Z,32.5
2023-04-24T02:07:49.468Z,30.3
2023-04-24T02:13:40.529Z,29.6
2023-04-24T02:19:32.246Z,28.9
2023-04-24T02:25:07.950Z,28.4
2023-04-24T02:30:58.795Z,26.9
2023-04-24T02:36:50.579Z,32.9
2023-04-24T02:42:41.906Z,31.6
2023-04-24T02:48:33.435Z,30.1
2023-04-24T02:54:25.354Z,29.4
2023-04-24T03:00:16.705Z,28.8
2023-04-24T03:06:10.153Z,28.3
2023-04-24T03:12:02.081Z,29
2023-04-24T03:17:56.147Z,33.6
2023-04-24T03:23:48.571Z,31
2023-04-24T03:29:39.907Z,29.9
2023-04-24T03:35:32.461Z,29.3
2023-04-24T03:41:08.784Z,28.7
2023-04-24T03:47:02.609Z,28.1
2023-04-24T03:52:55.816Z,29.9
2023-04-24T03:58:47.134Z,33.9
2023-04-24T04:04:40.731Z,30.9
2023-04-24T04:10:32.458Z,29.9
2023-04-24T04:16:23.725Z,29.3
2023-04-24T04:22:15.439Z,28.8
2023-04-24T04:28:06.800Z,28.2
2023-04-24T04:33:58.592Z,30.6
2023-04-24T04:39:50.510Z,33.3
2023-04-24T04:45:42.635Z,30.8
2023-04-24T04:51:34.312Z,29.9
2023-04-24T04:57:26.472Z,29.3
2023-04-24T05:03:19.736Z,28.7
2023-04-24T05:09:20.402Z,28.1
2023-04-24T05:15:24.051Z,27.6
2023-04-24T05:21:16.258Z,27
2023-04-24T05:26:51.647Z,26.6
2023-04-24T05:32:28.306Z,26.1
2023-04-24T05:38:20.361Z,25.8
2023-04-24T05:44:11.050Z,25.4
2023-04-24T05:49:47.431Z,25
2023-04-24T05:55:39.127Z,24.8
2023-04-24T06:01:30.341Z,24.5
2023-04-24T06:07:25.201Z,24.3
2023-04-24T06:12:47.125Z,24
2023-04-24T06:18:39.466Z,23.8
2023-04-24T06:24:30.629Z,23.6
2023-04-24T06:30:06.900Z,23.5
2023-04-24T06:36:06.837Z,23.3
2023-04-24T06:41:43.524Z,23.2
2023-04-24T06:47:19.724Z,23.1
2023-04-24T06:53:12.353Z,23.1
2023-04-24T06:59:03.678Z,22.9
2023-04-24T07:04:59.428Z,22.9
2023-04-24T07:10:51.234Z,22.8
2023-04-24T07:16:28.260Z,22.8
2023-04-24T07:22:04.924Z,22.7
2023-04-24T07:27:42.886Z,22.6
2023-04-24T07:33:35.478Z,22.6
2023-04-24T07:39:27.160Z,22.5
2023-04-24T07:45:19.106Z,22.4
2023-04-24T07:51:25.529Z,22.4
2023-04-24T07:57:19.974Z,22.4
2023-04-24T08:03:12.225Z,22.4
2023-04-24T08:09:07.578Z,22.3
2023-04-24T08:14:46.071Z,22.3
2023-04-24T08:20:38.629Z,22.3
2023-04-24T08:26:29.858Z,22.3
2023-04-24T08:32:08.716Z,22.3
2023-04-24T08:37:54.742Z,22.2
2023-04-24T08:43:45.966Z,22.2
2023-04-24T08:49:54.420Z,22.2
2023-04-24T08:55:45.900Z,22.2
2023-04-24T09:01:22.250Z,22.1
2023-04-24T09:07:17.307Z,22.1
2023-04-24T09:13:08.817Z,22.1
2023-04-24T09:19:00.525Z,22.1
2023-04-24T09:24:36.715Z,22.1
2023-04-24T09:30:14.209Z,22.1
2023-04-24T09:35:49.977Z,22.1
2023-04-24T09:41:41.634Z,22.1
2023-04-24T09:47:43.474Z,22
2023-04-24T09:53:38.999Z,22
2023-04-24T09:59:30.700Z,21.9
2023-04-24T10:05:24.393Z,21.9
2023-04-24T10:11:16.286Z,21.9
2023-04-24T10:17:08.756Z,21.9
2023-04-24T10:23:01.066Z,21.9
2023-04-24T10:28:52.003Z,21.9
2023-04-24T10:34:44.634Z,21.9
2023-04-24T10:40:36.213Z,21.9
2023-04-24T10:46:28.414Z,21.9
2023-04-24T10:52:20.258Z,21.9
2023-04-24T10:58:12.111Z,21.9
2023-04-24T11:04:05.451Z,21.8
2023-04-24T11:09:44.546Z,21.8
2023-04-24T11:15:21.169Z,21.8
